Time;durP1;ratioP1;P1;durP2;ratioP2;P2;SDS_P1;SDS_P2;PMS_P1;PMS_P2;Temp;Humidity;BMP_temperature;BMP_pressure;BME280_temperature;BME280_humidity;BME280_pressure;Samples;Min_cycle;Max_cycle;Signal;HPM_P1;HPM_P2
2022/03/07 00:04:51;;;;;;;13.20;6.05;;;;;;;;;;4929307;29;20082;-93
2022/03/07 00:07:19;;;;;;;16.38;6.22;;;;;;;;;;4935753;29;20103;-92
2022/03/07 00:09:48;;;;;;;12.10;6.70;;;;;;;;;;4938731;29;20492;-93
2022/03/07 00:12:16;;;;;;;12.23;6.78;;;;;;;;;;4947432;29;20079;-92
2022/03/07 00:14:49;;;;;;;15.85;6.55;;;;;;;;;;4941190;29;20084;-92
2022/03/07 00:20:44;;;;;;;14.35;6.47;;;;;;;;;;4943298;28;20043;-92
2022/03/07 00:23:12;;;;;;;12.43;6.18;;;;;;;;;;4939934;29;20040;-92
2022/03/07 00:25:40;;;;;;;15.25;6.55;;;;;;;;;;4940465;29;20153;-94
2022/03/07 00:28:09;;;;;;;12.30;6.32;;;;;;;;;;4936740;29;20055;-93
2022/03/07 00:30:37;;;;;;;12.10;6.50;;;;;;;;;;4928088;29;20040;-93
2022/03/07 00:33:06;;;;;;;14.80;6.28;;;;;;;;;;4940939;29;20054;-93
2022/03/07 00:35:35;;;;;;;13.88;7.28;;;;;;;;;;4943713;29;20074;-92
2022/03/07 00:38:04;;;;;;;14.80;6.47;;;;;;;;;;4944799;29;20130;-92
2022/03/07 00:40:33;;;;;;;15.63;6.90;;;;;;;;;;4942741;29;20102;-93
2022/03/07 00:43:01;;;;;;;12.07;6.72;;;;;;;;;;4936973;29;20373;-93
2022/03/07 00:45:30;;;;;;;15.13;6.78;;;;;;;;;;4943264;29;20051;-93
2022/03/07 00:47:58;;;;;;;11.70;6.45;;;;;;;;;;4949546;28;20460;-93
2022/03/07 00:50:27;;;;;;;11.45;6.22;;;;;;;;;;4961582;28;20043;-93
2022/03/07 00:52:55;;;;;;;16.02;7.43;;;;;;;;;;4959009;29;20071;-93
2022/03/07 00:55:25;;;;;;;12.55;7.32;;;;;;;;;;4962030;29;20079;-94
2022/03/07 01:00:56;;;;;;;15.80;6.95;;;;;;;;;;4935416;29;20050;-93
2022/03/07 01:06:35;;;;;;;13.02;6.70;;;;;;;;;;4955216;29;20082;-94
2022/03/07 01:09:16;;;;;;;18.90;7.80;;;;;;;;;;4962347;29;20051;-92
2022/03/07 01:11:46;;;;;;;13.68;6.63;;;;;;;;;;4960298;28;20377;-92
2022/03/07 01:14:17;;;;;;;12.75;7.32;;;;;;;;;;4963655;28;20051;-94
2022/03/07 01:16:46;;;;;;;12.70;7.20;;;;;;;;;;4959450;29;20081;-92
2022/03/07 01:19:14;;;;;;;14.52;7.25;;;;;;;;;;4959727;29;20046;-93
2022/03/07 01:21:43;;;;;;;15.93;7.90;;;;;;;;;;4962242;29;20078;-92
2022/03/07 01:24:11;;;;;;;16.55;7.70;;;;;;;;;;4962724;28;20100;-93
2022/03/07 01:26:40;;;;;;;15.85;7.55;;;;;;;;;;4957776;29;20118;-92
2022/03/07 01:29:10;;;;;;;15.35;7.82;;;;;;;;;;4961437;28;20110;-93
2022/03/07 01:31:38;;;;;;;16.33;7.57;;;;;;;;;;4960936;29;20043;-93
2022/03/07 01:34:07;;;;;;;19.88;8.52;;;;;;;;;;4953828;29;20730;-93
2022/03/07 01:36:35;;;;;;;14.43;8.13;;;;;;;;;;4961874;29;20051;-92
2022/03/07 01:39:04;;;;;;;17.48;8.13;;;;;;;;;;4955835;28;20078;-92
2022/03/07 01:41:32;;;;;;;14.48;7.85;;;;;;;;;;4960730;29;20047;-93
2022/03/07 01:44:01;;;;;;;17.15;9.68;;;;;;;;;;4960839;28;20063;-93
2022/03/07 01:46:33;;;;;;;17.33;8.07;;;;;;;;;;4961181;29;20071;-95
2022/03/07 01:49:01;;;;;;;17.50;8.23;;;;;;;;;;4959565;29;20062;-93
2022/03/07 01:51:30;;;;;;;16.38;8.18;;;;;;;;;;4959425;29;20055;-93
2022/03/07 01:53:58;;;;;;;18.00;9.15;;;;;;;;;;4961008;28;20043;-93
2022/03/07 01:56:29;;;;;;;15.95;8.43;;;;;;;;;;4960962;29;20051;-93
2022/03/07 01:58:57;;;;;;;18.23;8.25;;;;;;;;;;4959973;29;20043;-93
2022/03/07 02:01:26;;;;;;;15.48;8.82;;;;;;;;;;4963901;29;20047;-94
2022/03/07 02:03:56;;;;;;;17.42;8.88;;;;;;;;;;4964530;29;20132;-93
2022/03/07 02:06:25;;;;;;;16.75;8.57;;;;;;;;;;4963156;29;20570;-93
2022/03/07 02:08:53;;;;;;;18.52;8.32;;;;;;;;;;4963567;28;20051;-94
2022/03/07 02:11:22;;;;;;;18.33;8.05;;;;;;;;;;4963346;29;20089;-93
2022/03/07 02:13:50;;;;;;;16.15;8.18;;;;;;;;;;4960306;29;20522;-93
2022/03/07 02:16:19;;;;;;;15.00;7.60;;;;;;;;;;4959379;29;20151;-93
2022/03/07 02:18:48;;;;;;;15.73;7.78;;;;;;;;;;4962227;28;20051;-93
2022/03/07 02:21:19;;;;;;;12.18;6.82;;;;;;;;;;4961176;28;20110;-93
2022/03/07 02:23:49;;;;;;;12.23;6.60;;;;;;;;;;4955827;29;20086;-93
2022/03/07 02:26:18;;;;;;;16.05;7.25;;;;;;;;;;4957599;29;20134;-93
2022/03/07 02:28:47;;;;;;;13.43;7.20;;;;;;;;;;4950038;28;20100;-93
2022/03/07 02:31:17;;;;;;;13.80;6.95;;;;;;;;;;4955853;29;20571;-93
2022/03/07 02:33:46;;;;;;;14.43;7.25;;;;;;;;;;4959576;29;20047;-93
2022/03/07 02:36:14;;;;;;;14.73;6.80;;;;;;;;;;4956168;29;20117;-93
2022/03/07 02:38:43;;;;;;;16.83;7.38;;;;;;;;;;4957356;29;20130;-94
2022/03/07 02:41:12;;;;;;;16.15;7.32;;;;;;;;;;4955090;29;20079;-95
2022/03/07 02:43:43;;;;;;;16.40;5.80;;;;;;;;;;4962551;28;20052;-94
2022/03/07 02:46:12;;;;;;;13.50;6.35;;;;;;;;;;4941277;29;20089;-93
2022/03/07 02:48:40;;;;;;;11.20;5.78;;;;;;;;;;4958339;29;21815;-93
2022/03/07 02:51:08;;;;;;;12.80;6.68;;;;;;;;;;4953569;29;20107;-93
2022/03/07 02:53:37;;;;;;;11.98;6.72;;;;;;;;;;4943822;28;20082;-93
2022/03/07 02:56:08;;;;;;;14.05;6.22;;;;;;;;;;4951840;28;20086;-93
2022/03/07 02:58:38;;;;;;;12.05;6.07;;;;;;;;;;4957779;29;20079;-93
2022/03/07 03:01:07;;;;;;;11.90;5.82;;;;;;;;;;4962213;28;20047;-93
2022/03/07 03:03:35;;;;;;;11.63;6.35;;;;;;;;;;4958385;29;20043;-93
2022/03/07 03:06:07;;;;;;;13.68;5.90;;;;;;;;;;4962118;28;20079;-93
2022/03/07 03:08:36;;;;;;;11.88;6.55;;;;;;;;;;4959639;29;20050;-93
2022/03/07 03:11:07;;;;;;;11.10;5.85;;;;;;;;;;4958476;28;20055;-93
2022/03/07 03:13:35;;;;;;;10.90;5.68;;;;;;;;;;4958864;28;20459;-93
2022/03/07 03:16:08;;;;;;;12.40;5.80;;;;;;;;;;4948033;29;20201;-93
2022/03/07 03:18:37;;;;;;;9.38;5.03;;;;;;;;;;4960853;29;20560;-93
2022/03/07 03:21:08;;;;;;;15.52;6.00;;;;;;;;;;4941013;29;20111;-93
2022/03/07 03:23:37;;;;;;;12.48;5.78;;;;;;;;;;4941283;29;20055;-93
2022/03/07 03:26:08;;;;;;;12.35;5.45;;;;;;;;;;4941555;29;20055;-93
2022/03/07 03:28:36;;;;;;;7.72;4.70;;;;;;;;;;4933092;29;20043;-93
2022/03/07 03:31:11;;;;;;;10.38;5.90;;;;;;;;;;4959226;29;20075;-93
2022/03/07 03:33:39;;;;;;;13.02;6.15;;;;;;;;;;4959679;29;20074;-93
2022/03/07 03:36:08;;;;;;;10.88;5.38;;;;;;;;;;4960165;29;20082;-93
2022/03/07 03:38:36;;;;;;;8.00;5.13;;;;;;;;;;4951163;29;20055;-93
2022/03/07 03:41:07;;;;;;;9.80;5.18;;;;;;;;;;4958907;28;20071;-93
2022/03/07 03:43:36;;;;;;;12.68;6.13;;;;;;;;;;4958396;29;20114;-93
2022/03/07 03:46:07;;;;;;;9.20;5.43;;;;;;;;;;4942951;29;20084;-93
2022/03/07 03:48:37;;;;;;;10.30;5.60;;;;;;;;;;4952160;28;20059;-93
2022/03/07 03:51:08;;;;;;;11.85;5.95;;;;;;;;;;4959361;29;20102;-93
2022/03/07 03:53:37;;;;;;;12.27;6.20;;;;;;;;;;4954195;29;20051;-93
2022/03/07 03:56:08;;;;;;;9.82;5.30;;;;;;;;;;4957430;29;20058;-94
2022/03/07 03:58:36;;;;;;;11.85;5.40;;;;;;;;;;4957089;29;20059;-93
2022/03/07 04:01:08;;;;;;;10.95;5.55;;;;;;;;;;4958893;28;20113;-93
2022/03/07 04:03:38;;;;;;;13.45;6.15;;;;;;;;;;4957610;28;20047;-93
2022/03/07 04:06:10;;;;;;;9.57;4.88;;;;;;;;;;4952124;28;20075;-94
2022/03/07 04:08:39;;;;;;;11.18;5.18;;;;;;;;;;4963352;28;20043;-94
2022/03/07 04:11:07;;;;;;;11.75;5.60;;;;;;;;;;4958938;28;20451;-93
2022/03/07 04:13:35;;;;;;;11.57;6.07;;;;;;;;;;4957689;28;20047;-93
2022/03/07 04:16:10;;;;;;;11.52;5.93;;;;;;;;;;4957426;29;20055;-92
2022/03/07 04:18:51;;;;;;;;;;;;;;;;;;4952843;29;20085;-93
2022/03/07 04:21:21;;;;;;;13.80;6.15;;;;;;;;;;4957469;29;19922;-93
2022/03/07 04:23:50;;;;;;;11.32;6.30;;;;;;;;;;4950604;29;20063;-94
2022/03/07 04:26:18;;;;;;;10.75;5.93;;;;;;;;;;4955948;29;20071;-93
2022/03/07 04:28:46;;;;;;;12.98;6.00;;;;;;;;;;4952757;29;20058;-93
2022/03/07 04:31:15;;;;;;;12.13;5.13;;;;;;;;;;4953054;28;20051;-93
2022/03/07 04:33:43;;;;;;;10.82;5.68;;;;;;;;;;4959224;28;20048;-93
2022/03/07 04:36:13;;;;;;;11.07;5.32;;;;;;;;;;4956696;29;20087;-93
2022/03/07 04:38:42;;;;;;;12.00;6.28;;;;;;;;;;4955101;29;20539;-93
2022/03/07 04:41:11;;;;;;;12.95;5.68;;;;;;;;;;4947592;29;20511;-93
2022/03/07 04:43:39;;;;;;;12.80;5.95;;;;;;;;;;4951733;29;20142;-94
2022/03/07 04:46:08;;;;;;;15.38;6.10;;;;;;;;;;4956730;29;20102;-94
2022/03/07 04:48:37;;;;;;;14.38;6.05;;;;;;;;;;4955257;29;20411;-93
2022/03/07 04:51:08;;;;;;;12.50;6.20;;;;;;;;;;4938010;29;20145;-93
2022/03/07 04:53:37;;;;;;;11.20;5.80;;;;;;;;;;4936829;29;20488;-93
2022/03/07 04:56:10;;;;;;;15.20;6.10;;;;;;;;;;4937593;29;20110;-93
2022/03/07 04:58:39;;;;;;;11.73;5.55;;;;;;;;;;4937628;29;20064;-94
2022/03/07 05:01:10;;;;;;;9.20;5.18;;;;;;;;;;4933338;29;20048;-94
2022/03/07 05:03:39;;;;;;;10.63;5.65;;;;;;;;;;4938575;29;20047;-93
2022/03/07 05:06:08;;;;;;;11.27;5.38;;;;;;;;;;4942353;29;20075;-93
2022/03/07 05:08:38;;;;;;;14.88;5.95;;;;;;;;;;4936135;29;20556;-94
2022/03/07 05:11:10;;;;;;;13.30;5.82;;;;;;;;;;4935948;28;20066;-93
2022/03/07 05:13:39;;;;;;;11.70;5.30;;;;;;;;;;4935756;29;20099;-93
2022/03/07 05:16:07;;;;;;;11.65;6.18;;;;;;;;;;4936676;29;20067;-93
2022/03/07 05:18:36;;;;;;;12.18;5.95;;;;;;;;;;4935676;29;20056;-93
2022/03/07 05:21:07;;;;;;;15.73;6.72;;;;;;;;;;4960964;29;20479;-94
2022/03/07 05:23:35;;;;;;;11.48;5.97;;;;;;;;;;4959517;29;20051;-93
2022/03/07 05:26:08;;;;;;;11.60;6.60;;;;;;;;;;4956482;29;20138;-93
2022/03/07 05:28:39;;;;;;;8.75;5.40;;;;;;;;;;4959208;29;20055;-93
2022/03/07 05:31:09;;;;;;;11.68;5.47;;;;;;;;;;4961187;28;20126;-93
2022/03/07 05:33:37;;;;;;;12.57;5.90;;;;;;;;;;4961782;29;20077;-92
2022/03/07 05:36:11;;;;;;;16.27;5.78;;;;;;;;;;4963009;29;20089;-93
2022/03/07 05:38:40;;;;;;;10.63;5.88;;;;;;;;;;4965042;28;20101;-92
2022/03/07 05:41:22;;;;;;;11.07;5.32;;;;;;;;;;4940685;29;20071;-93
2022/03/07 05:43:52;;;;;;;11.45;6.15;;;;;;;;;;4940402;29;20147;-93
2022/03/07 05:46:20;;;;;;;11.27;5.70;;;;;;;;;;4937119;29;20583;-92
2022/03/07 05:48:49;;;;;;;8.80;5.13;;;;;;;;;;4935476;29;20183;-92
2022/03/07 05:51:22;;;;;;;12.40;5.97;;;;;;;;;;4919219;29;20127;-92
2022/03/07 05:53:51;;;;;;;8.95;5.50;;;;;;;;;;4923134;29;20044;-94
2022/03/07 05:56:19;;;;;;;12.48;5.40;;;;;;;;;;4930392;29;20052;-93
2022/03/07 05:58:48;;;;;;;12.77;6.13;;;;;;;;;;4931983;29;20056;-93
2022/03/07 06:01:32;;;;;;;12.05;6.03;;;;;;;;;;4926699;29;20051;-93
2022/03/07 06:04:01;;;;;;;13.85;5.65;;;;;;;;;;4915406;29;20045;-92
2022/03/07 06:06:30;;;;;;;15.27;6.32;;;;;;;;;;4924149;29;20076;-93
2022/03/07 06:08:58;;;;;;;13.27;6.03;;;;;;;;;;4922039;29;20146;-93
2022/03/07 06:11:27;;;;;;;16.30;6.43;;;;;;;;;;4942923;29;20060;-92
2022/03/07 06:14:16;;;;;;;12.35;5.85;;;;;;;;;;4964533;29;20475;-92
2022/03/07 06:16:46;;;;;;;11.48;6.78;;;;;;;;;;4959190;29;20074;-92
2022/03/07 06:19:15;;;;;;;12.95;6.80;;;;;;;;;;4950319;29;20059;-93
2022/03/07 06:21:48;;;;;;;15.85;8.38;;;;;;;;;;4944109;29;20084;-92
2022/03/07 06:24:17;;;;;;;18.00;7.78;;;;;;;;;;4956446;29;20051;-94
2022/03/07 06:27:17;;;;;;;13.27;6.50;;;;;;;;;;4954586;29;20052;-94
2022/03/07 06:29:50;;;;;;;11.93;5.95;;;;;;;;;;4953285;29;20106;-94
2022/03/07 06:35:37;;;;;;;14.25;6.88;;;;;;;;;;4940768;29;20066;-94
2022/03/07 06:38:18;;;;;;;22.17;7.35;;;;;;;;;;4953893;29;20052;-93
2022/03/07 06:43:45;;;;;;;17.90;7.30;;;;;;;;;;4955974;28;20047;-93
2022/03/07 06:46:33;;;;;;;14.38;8.25;;;;;;;;;;4955952;29;20085;-94
2022/03/07 06:49:04;;;;;;;14.82;7.78;;;;;;;;;;4954891;29;20055;-93
2022/03/07 06:54:40;;;;;;;17.45;7.68;;;;;;;;;;4955423;29;20028;-94
2022/03/07 06:57:14;;;;;;;16.58;7.85;;;;;;;;;;4959736;28;20111;-95
2022/03/07 06:59:51;;;;;;;16.50;7.60;;;;;;;;;;4955898;29;20040;-93
2022/03/07 07:02:20;;;;;;;17.98;8.25;;;;;;;;;;4957794;23;20112;-65
2022/03/07 07:04:49;;;;;;;17.23;7.30;;;;;;;;;;4914031;29;20044;-65
2022/03/07 07:07:18;;;;;;;15.07;6.85;;;;;;;;;;4913549;29;20052;-66
2022/03/07 07:09:48;;;;;;;18.13;8.98;;;;;;;;;;4921879;29;20432;-67
2022/03/07 07:12:16;;;;;;;19.52;8.15;;;;;;;;;;4930940;29;20295;-67
2022/03/07 07:14:45;;;;;;;15.75;7.75;;;;;;;;;;4931756;29;20047;-67
2022/03/07 07:17:14;;;;;;;16.42;8.40;;;;;;;;;;4930651;29;20052;-67
2022/03/07 07:19:42;;;;;;;17.67;7.50;;;;;;;;;;4927657;29;20572;-67
2022/03/07 07:22:11;;;;;;;16.52;7.60;;;;;;;;;;4931590;29;20134;-67
2022/03/07 07:24:40;;;;;;;19.33;8.20;;;;;;;;;;4932643;29;20480;-67
2022/03/07 07:27:09;;;;;;;20.60;8.30;;;;;;;;;;4932065;29;20051;-67
2022/03/07 07:29:39;;;;;;;16.15;7.88;;;;;;;;;;4916221;29;20079;-67
2022/03/07 07:32:08;;;;;;;21.35;7.90;;;;;;;;;;4920144;29;20064;-67
2022/03/07 07:34:36;;;;;;;17.10;8.77;;;;;;;;;;4931048;29;20634;-67
2022/03/07 07:37:05;;;;;;;19.55;9.18;;;;;;;;;;4927673;29;20499;-67
2022/03/07 07:39:42;;;;;;;15.23;7.93;;;;;;;;;;4931726;29;20047;-67
2022/03/07 07:42:11;;;;;;;18.20;8.95;;;;;;;;;;4932309;29;20086;-67
2022/03/07 07:44:40;;;;;;;20.27;8.35;;;;;;;;;;4932064;29;20040;-67
2022/03/07 07:47:09;;;;;;;19.90;9.43;;;;;;;;;;4928715;29;20040;-67
2022/03/07 07:49:37;;;;;;;21.40;8.88;;;;;;;;;;4931897;29;20051;-67
2022/03/07 07:52:06;;;;;;;16.63;8.35;;;;;;;;;;4931437;29;20503;-67
2022/03/07 07:54:34;;;;;;;16.73;9.00;;;;;;;;;;4931101;29;20496;-67
2022/03/07 07:57:05;;;;;;;18.02;8.70;;;;;;;;;;4926640;29;20094;-67
2022/03/07 07:59:35;;;;;;;21.35;8.73;;;;;;;;;;4930331;29;20178;-67
2022/03/07 08:02:18;;;;;;;19.93;8.67;;;;;;;;;;4931004;29;20072;-67
2022/03/07 08:04:47;;;;;;;23.90;9.27;;;;;;;;;;4931581;29;20066;-67
2022/03/07 08:07:16;;;;;;;21.30;9.68;;;;;;;;;;4932200;29;20048;-67
2022/03/07 08:09:44;;;;;;;19.50;8.63;;;;;;;;;;4931614;29;20055;-67
2022/03/07 08:12:17;;;;;;;19.23;9.40;;;;;;;;;;4929753;29;20421;-67
2022/03/07 08:14:47;;;;;;;20.52;9.32;;;;;;;;;;4932095;29;20138;-67
2022/03/07 08:17:16;;;;;;;20.52;9.23;;;;;;;;;;4931764;29;20145;-67
2022/03/07 08:19:45;;;;;;;18.70;8.68;;;;;;;;;;4931504;29;20099;-67
2022/03/07 08:22:13;;;;;;;19.90;9.25;;;;;;;;;;4930164;29;20553;-67
2022/03/07 08:24:42;;;;;;;23.33;10.02;;;;;;;;;;4931743;29;20059;-67
2022/03/07 08:27:10;;;;;;;24.15;10.43;;;;;;;;;;4929891;29;20056;-67
2022/03/07 08:29:39;;;;;;;24.73;10.25;;;;;;;;;;4928664;29;20059;-67
2022/03/07 08:32:09;;;;;;;23.20;10.88;;;;;;;;;;4930846;29;20138;-66
2022/03/07 08:34:38;;;;;;;24.40;9.85;;;;;;;;;;4931624;29;20090;-66
2022/03/07 08:37:06;;;;;;;24.75;11.30;;;;;;;;;;4930805;29;20138;-66
2022/03/07 08:39:35;;;;;;;17.48;8.93;;;;;;;;;;4919939;29;20063;-66
2022/03/07 08:42:03;;;;;;;24.70;11.25;;;;;;;;;;4912253;29;20493;-66
2022/03/07 08:44:33;;;;;;;21.75;10.25;;;;;;;;;;4912489;29;20071;-67
2022/03/07 08:47:02;;;;;;;22.50;10.23;;;;;;;;;;4913412;29;20067;-67
2022/03/07 08:49:32;;;;;;;22.50;10.43;;;;;;;;;;4911824;29;20441;-66
2022/03/07 08:52:04;;;;;;;21.60;10.00;;;;;;;;;;4909018;29;20056;-66
2022/03/07 08:54:33;;;;;;;21.70;10.57;;;;;;;;;;4915573;29;20590;-67
2022/03/07 08:57:02;;;;;;;19.08;10.07;;;;;;;;;;4914915;29;20497;-67
2022/03/07 08:59:31;;;;;;;22.02;9.82;;;;;;;;;;4922286;29;20048;-67
2022/03/07 09:01:59;;;;;;;18.52;9.32;;;;;;;;;;4934312;29;20511;-67
2022/03/07 09:04:29;;;;;;;23.33;10.85;;;;;;;;;;4924713;29;20138;-66
2022/03/07 09:07:00;;;;;;;23.77;10.85;;;;;;;;;;4934270;29;20048;-67
2022/03/07 09:09:29;;;;;;;18.50;9.70;;;;;;;;;;4933553;29;20055;-67
2022/03/07 09:12:01;;;;;;;23.85;10.40;;;;;;;;;;4929595;29;20047;-66
2022/03/07 09:14:30;;;;;;;28.05;11.10;;;;;;;;;;4934271;29;20563;-67
2022/03/07 09:16:58;;;;;;;21.45;10.48;;;;;;;;;;4932535;29;20059;-67
2022/03/07 09:19:28;;;;;;;27.83;12.00;;;;;;;;;;4934068;29;20052;-67
2022/03/07 09:21:56;;;;;;;25.80;10.82;;;;;;;;;;4934687;29;20559;-67
2022/03/07 09:24:26;;;;;;;22.60;10.05;;;;;;;;;;4928745;29;20051;-67
2022/03/07 09:26:55;;;;;;;20.92;10.43;;;;;;;;;;4935237;29;20544;-67
2022/03/07 09:29:24;;;;;;;18.02;9.30;;;;;;;;;;4935030;29;20099;-67
2022/03/07 09:31:53;;;;;;;26.65;11.05;;;;;;;;;;4929650;29;20043;-67
2022/03/07 09:34:22;;;;;;;22.42;11.13;;;;;;;;;;4936909;29;20051;-67
2022/03/07 09:36:52;;;;;;;23.40;11.52;;;;;;;;;;4935706;29;20461;-67
2022/03/07 09:39:20;;;;;;;24.83;10.27;;;;;;;;;;4932270;29;20055;-67
2022/03/07 09:41:50;;;;;;;25.13;11.77;;;;;;;;;;4934350;29;20262;-67
2022/03/07 09:44:19;;;;;;;24.27;11.57;;;;;;;;;;4929043;29;20055;-66
2022/03/07 09:46:50;;;;;;;22.50;10.57;;;;;;;;;;4933885;29;20408;-66
2022/03/07 09:49:20;;;;;;;22.80;11.07;;;;;;;;;;4932032;29;20047;-67
2022/03/07 09:51:49;;;;;;;24.17;11.05;;;;;;;;;;4933041;29;20428;-66
2022/03/07 09:54:17;;;;;;;22.70;10.82;;;;;;;;;;4932973;29;20060;-67
2022/03/07 09:56:46;;;;;;;27.63;11.73;;;;;;;;;;4933495;29;20106;-66
2022/03/07 09:59:17;;;;;;;20.90;10.32;;;;;;;;;;4932287;29;20047;-66
2022/03/07 10:01:46;;;;;;;27.05;11.63;;;;;;;;;;4933469;29;20046;-66
2022/03/07 10:04:15;;;;;;;23.10;11.25;;;;;;;;;;4928098;29;20062;-66
2022/03/07 10:06:49;;;;;;;26.15;11.68;;;;;;;;;;4933041;29;20062;-66
2022/03/07 10:09:22;;;;;;;23.38;10.60;;;;;;;;;;4930781;29;20270;-66
2022/03/07 10:11:52;;;;;;;26.08;11.48;;;;;;;;;;4933899;29;20051;-66
2022/03/07 10:14:30;;;;;;;26.38;11.63;;;;;;;;;;4932459;29;20043;-66
2022/03/07 10:16:59;;;;;;;23.73;11.80;;;;;;;;;;4933394;29;20488;-66
2022/03/07 10:19:29;;;;;;;22.08;10.55;;;;;;;;;;4933815;29;20385;-66
2022/03/07 10:21:57;;;;;;;26.05;10.15;;;;;;;;;;4931694;29;20420;-66
2022/03/07 10:24:33;;;;;;;26.08;11.45;;;;;;;;;;4928883;29;20118;-66
2022/03/07 10:27:02;;;;;;;29.45;12.82;;;;;;;;;;4930847;29;20056;-66
2022/03/07 10:29:33;;;;;;;21.60;9.93;;;;;;;;;;4926979;29;20107;-66
2022/03/07 10:32:01;;;;;;;27.27;11.25;;;;;;;;;;4933495;29;20780;-66
2022/03/07 10:34:30;;;;;;;22.42;10.77;;;;;;;;;;4933110;29;20051;-66
2022/03/07 10:36:59;;;;;;;21.95;10.90;;;;;;;;;;4933260;29;20043;-66
2022/03/07 10:39:28;;;;;;;29.83;12.30;;;;;;;;;;4932464;29;20055;-66
2022/03/07 10:41:56;;;;;;;25.08;10.43;;;;;;;;;;4933496;29;20071;-66
2022/03/07 10:44:26;;;;;;;28.38;11.88;;;;;;;;;;4925199;29;20051;-66
2022/03/07 10:47:05;;;;;;;26.40;11.95;;;;;;;;;;4931084;29;20055;-66
2022/03/07 10:49:34;;;;;;;25.45;12.63;;;;;;;;;;4932295;29;20055;-66
2022/03/07 10:52:04;;;;;;;23.88;12.02;;;;;;;;;;4928824;29;20081;-66
2022/03/07 10:54:37;;;;;;;23.05;11.20;;;;;;;;;;4933036;29;20044;-66
2022/03/07 10:57:08;;;;;;;29.35;12.48;;;;;;;;;;4933072;29;20047;-66
2022/03/07 10:59:37;;;;;;;26.02;11.75;;;;;;;;;;4931642;29;20519;-66
2022/03/07 11:02:10;;;;;;;22.25;9.82;;;;;;;;;;4930312;29;20054;-66
2022/03/07 11:04:39;;;;;;;23.42;12.07;;;;;;;;;;4927278;29;20054;-66
2022/03/07 11:07:09;;;;;;;21.48;10.98;;;;;;;;;;4932294;29;20055;-67
2022/03/07 11:09:38;;;;;;;26.75;11.75;;;;;;;;;;4930730;29;20146;-67
2022/03/07 11:12:07;;;;;;;22.27;11.90;;;;;;;;;;4932921;29;20048;-67
2022/03/07 11:14:37;;;;;;;24.40;11.57;;;;;;;;;;4930678;29;20051;-67
2022/03/07 11:17:05;;;;;;;23.23;11.13;;;;;;;;;;4932846;29;20048;-67
2022/03/07 11:19:36;;;;;;;25.75;11.27;;;;;;;;;;4929159;29;20138;-67
2022/03/07 11:22:05;;;;;;;27.00;12.63;;;;;;;;;;4933222;29;20181;-67
2022/03/07 11:24:35;;;;;;;29.95;12.85;;;;;;;;;;4930268;29;20110;-67
2022/03/07 11:27:05;;;;;;;24.10;11.80;;;;;;;;;;4932805;29;20115;-67
2022/03/07 11:29:35;;;;;;;25.42;12.23;;;;;;;;;;4923930;29;20048;-67
2022/03/07 11:32:05;;;;;;;25.67;12.02;;;;;;;;;;4912720;29;20134;-67
2022/03/07 11:34:36;;;;;;;30.30;11.85;;;;;;;;;;4907389;29;20051;-67
2022/03/07 11:37:05;;;;;;;24.35;11.52;;;;;;;;;;4912376;29;20060;-67
2022/03/07 11:39:34;;;;;;;28.35;12.82;;;;;;;;;;4915055;29;20055;-67
2022/03/07 11:42:10;;;;;;;30.17;13.18;;;;;;;;;;4931596;29;20174;-67
2022/03/07 11:44:42;;;;;;;25.60;11.77;;;;;;;;;;4922806;29;20047;-66
2022/03/07 11:47:12;;;;;;;28.02;12.55;;;;;;;;;;4926772;29;20051;-67
2022/03/07 11:49:42;;;;;;;29.15;13.50;;;;;;;;;;4929099;29;20559;-67
2022/03/07 11:52:11;;;;;;;27.63;12.18;;;;;;;;;;4930839;29;20100;-67
2022/03/07 11:54:51;;;;;;;28.50;13.85;;;;;;;;;;4930209;29;20138;-67
2022/03/07 11:57:19;;;;;;;28.42;12.20;;;;;;;;;;4931356;29;20130;-66
2022/03/07 11:59:48;;;;;;;28.10;12.77;;;;;;;;;;4926783;29;20776;-66
2022/03/07 12:02:17;;;;;;;27.73;12.57;;;;;;;;;;4930254;29;20043;-67
2022/03/07 12:04:47;;;;;;;26.30;12.50;;;;;;;;;;4930354;29;20048;-67
2022/03/07 12:07:26;;;;;;;25.30;11.70;;;;;;;;;;4931142;29;20482;-67
2022/03/07 12:10:06;;;;;;;27.52;13.23;;;;;;;;;;4931006;29;20461;-67
2022/03/07 12:12:35;;;;;;;28.38;11.80;;;;;;;;;;4931286;29;20052;-67
2022/03/07 12:15:08;;;;;;;22.10;11.70;;;;;;;;;;4930717;29;20052;-67
2022/03/07 12:17:37;;;;;;;28.95;12.93;;;;;;;;;;4930653;29;20484;-67
2022/03/07 12:20:08;;;;;;;24.95;11.10;;;;;;;;;;4929260;29;20063;-67
2022/03/07 12:22:36;;;;;;;29.08;13.27;;;;;;;;;;4930949;29;20074;-67
2022/03/07 12:25:07;;;;;;;31.35;12.57;;;;;;;;;;4930785;29;20416;-67
2022/03/07 12:27:38;;;;;;;27.00;12.00;;;;;;;;;;4931988;29;20102;-67
2022/03/07 12:30:08;;;;;;;24.15;11.65;;;;;;;;;;4934019;29;20075;-66
2022/03/07 12:32:37;;;;;;;25.77;12.20;;;;;;;;;;4935660;29;20055;-67
2022/03/07 12:35:06;;;;;;;25.83;11.45;;;;;;;;;;4934266;29;20051;-66
2022/03/07 12:37:38;;;;;;;24.73;11.85;;;;;;;;;;4935651;29;20548;-67
2022/03/07 12:40:09;;;;;;;24.05;10.80;;;;;;;;;;4934764;29;20059;-67
2022/03/07 12:42:42;;;;;;;27.70;12.95;;;;;;;;;;4936817;29;20065;-67
2022/03/07 12:45:11;;;;;;;27.20;12.90;;;;;;;;;;4932122;29;20051;-67
2022/03/07 12:47:40;;;;;;;26.85;12.20;;;;;;;;;;4934497;29;20399;-67
2022/03/07 12:50:10;;;;;;;23.98;11.77;;;;;;;;;;4935707;29;20158;-67
2022/03/07 12:52:42;;;;;;;28.17;12.95;;;;;;;;;;4937164;29;20048;-67
2022/03/07 12:55:12;;;;;;;26.23;12.18;;;;;;;;;;4937021;29;20047;-67
2022/03/07 12:57:41;;;;;;;29.10;12.65;;;;;;;;;;4935205;29;20055;-67
2022/03/07 13:00:11;;;;;;;24.52;11.85;;;;;;;;;;4935383;29;20484;-67
2022/03/07 13:02:41;;;;;;;24.65;11.65;;;;;;;;;;4936330;29;20075;-67
2022/03/07 13:05:11;;;;;;;23.88;12.07;;;;;;;;;;4938141;29;20306;-67
2022/03/07 13:07:41;;;;;;;23.05;10.73;;;;;;;;;;4936884;29;20052;-67
2022/03/07 13:10:11;;;;;;;24.58;11.30;;;;;;;;;;4931098;29;20130;-67
2022/03/07 13:12:41;;;;;;;20.70;10.15;;;;;;;;;;4936388;29;20056;-67
2022/03/07 13:15:11;;;;;;;19.58;10.00;;;;;;;;;;4937480;29;20055;-67
2022/03/07 13:17:39;;;;;;;27.00;12.20;;;;;;;;;;4937232;29;20040;-67
2022/03/07 13:20:11;;;;;;;23.48;11.50;;;;;;;;;;4933359;29;20087;-67
2022/03/07 13:22:41;;;;;;;23.20;10.98;;;;;;;;;;4931097;29;20051;-67
2022/03/07 13:25:10;;;;;;;26.52;12.80;;;;;;;;;;4936213;29;20047;-67
2022/03/07 13:27:46;;;;;;;21.40;11.00;;;;;;;;;;4935278;29;20130;-67
2022/03/07 13:30:15;;;;;;;24.52;11.88;;;;;;;;;;4927960;29;20079;-67
2022/03/07 13:32:44;;;;;;;26.27;12.30;;;;;;;;;;4935280;29;20058;-67
2022/03/07 13:35:22;;;;;;;22.75;10.63;;;;;;;;;;4935574;29;20059;-67
2022/03/07 13:37:53;;;;;;;20.80;10.85;;;;;;;;;;4936497;29;20059;-67
2022/03/07 13:40:23;;;;;;;23.45;11.15;;;;;;;;;;4934792;29;20051;-67
2022/03/07 13:42:53;;;;;;;22.92;11.00;;;;;;;;;;4932184;29;20067;-66
2022/03/07 13:45:23;;;;;;;25.10;11.18;;;;;;;;;;4926453;29;20047;-66
2022/03/07 13:47:55;;;;;;;29.98;12.32;;;;;;;;;;4930338;29;20555;-66
2022/03/07 13:50:25;;;;;;;27.25;11.30;;;;;;;;;;4930091;29;20138;-67
2022/03/07 13:53:04;;;;;;;24.67;12.45;;;;;;;;;;4931022;29;20086;-66
2022/03/07 13:55:34;;;;;;;26.83;11.68;;;;;;;;;;4930173;29;20071;-66
2022/03/07 13:58:05;;;;;;;24.13;11.50;;;;;;;;;;4930026;29;20062;-66
2022/03/07 14:00:36;;;;;;;23.85;12.07;;;;;;;;;;4929843;29;20051;-66
2022/03/07 14:03:07;;;;;;;22.30;11.35;;;;;;;;;;4926358;29;20190;-66
2022/03/07 14:05:55;;;;;;;23.98;11.60;;;;;;;;;;4925225;29;20082;-66
2022/03/07 14:08:34;;;;;;;24.45;12.10;;;;;;;;;;4924761;29;20056;-66
2022/03/07 14:11:05;;;;;;;23.98;11.98;;;;;;;;;;4932792;29;20576;-66
2022/03/07 14:13:44;;;;;;;20.90;11.23;;;;;;;;;;4930202;29;20098;-66
2022/03/07 14:16:13;;;;;;;21.52;11.82;;;;;;;;;;4927272;29;20066;-66
2022/03/07 14:18:42;;;;;;;22.50;11.02;;;;;;;;;;4930333;29;20047;-66
2022/03/07 14:21:17;;;;;;;26.23;11.85;;;;;;;;;;4931345;29;20059;-66
2022/03/07 14:24:04;;;;;;;24.00;11.77;;;;;;;;;;4932544;29;20412;-66
2022/03/07 14:26:33;;;;;;;22.27;11.45;;;;;;;;;;4925065;29;20051;-66
2022/03/07 14:29:09;;;;;;;22.90;11.50;;;;;;;;;;4932089;29;20059;-66
2022/03/07 14:31:38;;;;;;;18.23;9.50;;;;;;;;;;4931648;29;20051;-67
2022/03/07 14:34:08;;;;;;;21.67;11.23;;;;;;;;;;4928919;29;20058;-67
2022/03/07 14:36:37;;;;;;;28.42;11.68;;;;;;;;;;4930409;29;20056;-67
2022/03/07 14:39:08;;;;;;;23.60;11.57;;;;;;;;;;4931546;29;20135;-67
2022/03/07 14:41:36;;;;;;;24.08;10.93;;;;;;;;;;4931581;29;20055;-67
2022/03/07 14:44:25;;;;;;;24.00;11.18;;;;;;;;;;4932216;29;20127;-67
2022/03/07 14:46:54;;;;;;;21.10;11.02;;;;;;;;;;4929019;29;20039;-67
2022/03/07 14:49:23;;;;;;;24.48;11.93;;;;;;;;;;4931307;29;20059;-67
2022/03/07 14:51:51;;;;;;;23.42;11.30;;;;;;;;;;4927695;29;20538;-67
2022/03/07 14:54:21;;;;;;;24.15;11.52;;;;;;;;;;4932273;29;20381;-67
2022/03/07 14:56:50;;;;;;;23.42;11.40;;;;;;;;;;4930845;29;20055;-67
2022/03/07 14:59:19;;;;;;;23.60;11.55;;;;;;;;;;4928962;29;20736;-67
2022/03/07 15:01:47;;;;;;;22.75;11.18;;;;;;;;;;4931614;29;20575;-67
2022/03/07 15:04:16;;;;;;;23.25;11.13;;;;;;;;;;4932141;29;20114;-67
2022/03/07 15:06:44;;;;;;;22.75;10.98;;;;;;;;;;4929540;29;20040;-67